createdAt,value
2022-10-13T00:02:32.698Z,82.19
2022-10-13T00:06:31.820Z,82.13
2022-10-13T00:10:30.117Z,82.11
2022-10-13T00:14:28.306Z,82.03
2022-10-13T00:18:41.189Z,81.92
2022-10-13T00:22:39.268Z,82.04
2022-10-13T00:26:37.232Z,82.19
2022-10-13T00:30:38.764Z,82.13
2022-10-13T00:34:38.348Z,82.05
2022-10-13T00:38:51.603Z,81.93
2022-10-13T00:42:57.234Z,81.92
2022-10-13T00:46:57.124Z,81.79
2022-10-13T00:50:58.639Z,81.75
2022-10-13T00:54:57.186Z,81.75
2022-10-13T00:59:22.822Z,81.91
2022-10-13T01:03:36.490Z,81.95
2022-10-13T01:07:35.959Z,82.13
2022-10-13T01:12:04.932Z,82.24
2022-10-13T01:16:26.103Z,82.09
2022-10-13T01:21:09.353Z,82.17
2022-10-13T01:25:38.170Z,82.00
2022-10-13T01:30:09.941Z,81.89
2022-10-13T01:34:31.999Z,81.83
2022-10-13T01:39:12.500Z,81.55
2022-10-13T01:43:47.925Z,81.71
2022-10-13T01:47:50.528Z,81.56
2022-10-13T01:52:07.332Z,81.57
2022-10-13T01:56:19.482Z,81.60
2022-10-13T02:00:21.401Z,81.49
2022-10-13T02:13:01.285Z,81.81
2022-10-13T02:17:03.623Z,81.61
2022-10-13T02:21:16.921Z,81.57
2022-10-13T02:25:30.596Z,81.55
2022-10-13T02:29:30.401Z,81.51
2022-10-13T02:33:29.244Z,81.39
2022-10-13T02:37:28.099Z,81.19
2022-10-13T02:41:26.946Z,81.38
2022-10-13T02:45:25.318Z,81.13
2022-10-13T02:49:39.644Z,81.02
2022-10-13T02:53:51.464Z,81.13
2022-10-13T02:57:49.664Z,80.97
2022-10-13T03:01:47.944Z,81.04
2022-10-13T03:06:00.339Z,80.89
2022-10-13T03:10:32.840Z,80.39
2022-10-13T03:13:51.864Z,80.47
2022-10-13T03:17:51.021Z,80.62
2022-10-13T03:26:30.921Z,80.43
2022-10-13T03:30:29.729Z,80.25
2022-10-13T03:34:27.959Z,80.06
2022-10-13T03:38:27.759Z,79.83
2022-10-13T03:42:26.345Z,79.60
2022-10-13T03:46:28.346Z,79.29
2022-10-13T03:50:41.005Z,79.31
2022-10-13T03:54:53.145Z,79.35
2022-10-13T03:59:05.184Z,79.14
2022-10-13T04:03:17.274Z,78.91
2022-10-13T04:07:15.526Z,79.09
2022-10-13T04:11:15.894Z,78.87
2022-10-13T04:15:15.169Z,78.41
2022-10-13T04:19:15.385Z,78.43
2022-10-13T04:23:27.960Z,78.32
2022-10-13T04:27:28.799Z,78.26
2022-10-13T04:31:04.683Z,78.47
2022-10-13T04:35:16.620Z,78.66
2022-10-13T04:39:15.001Z,78.81
2022-10-13T04:43:13.005Z,78.79
2022-10-13T04:47:11.485Z,78.60
2022-10-13T04:51:25.848Z,77.85
2022-10-13T04:55:24.074Z,77.50
2022-10-13T04:59:36.230Z,77.37
2022-10-13T05:03:35.856Z,77.63
2022-10-13T05:07:34.879Z,77.80
2022-10-13T05:11:34.197Z,78.01
2022-10-13T05:15:46.846Z,77.97
2022-10-13T05:19:45.769Z,76.80
2022-10-13T05:23:45.832Z,76.75
2022-10-13T05:27:46.786Z,76.90
2022-10-13T05:31:45.548Z,77.19
2022-10-13T05:35:43.962Z,77.23
2022-10-13T05:39:42.249Z,77.44
2022-10-13T05:43:42.481Z,77.58
2022-10-13T05:47:41.549Z,77.65
2022-10-13T05:52:01.801Z,77.22
2022-10-13T05:56:23.468Z,77.29
2022-10-13T06:00:35.792Z,77.26
2022-10-13T06:04:50.852Z,77.36
2022-10-13T06:08:52.129Z,77.46
2022-10-13T06:12:51.092Z,77.81
2022-10-13T06:16:50.500Z,77.67
2022-10-13T06:20:49.358Z,77.41
2022-10-13T06:24:49.263Z,77.21
2022-10-13T06:28:51.834Z,77.02
2022-10-13T06:32:56.768Z,76.41
2022-10-13T06:36:54.980Z,76.57
2022-10-13T06:40:53.064Z,76.17
2022-10-13T06:44:59.201Z,75.65
2022-10-13T06:48:30.209Z,75.68
2022-10-13T06:52:49.399Z,75.15
2022-10-13T06:56:19.950Z,75.16
2022-10-13T07:00:18.644Z,75.40
2022-10-13T07:04:18.539Z,74.72
2022-10-13T07:08:17.315Z,74.99
2022-10-13T07:12:29.651Z,74.96
2022-10-13T07:16:28.152Z,74.44
2022-10-13T07:20:26.737Z,73.12
2022-10-13T07:24:38.878Z,72.90
2022-10-13T07:28:37.889Z,72.64
2022-10-13T07:32:49.940Z,71.94
2022-10-13T07:37:01.827Z,72.10
2022-10-13T07:41:15.869Z,71.89
2022-10-13T07:45:28.165Z,71.76
2022-10-13T07:49:26.852Z,71.34
2022-10-13T07:53:25.581Z,70.67
2022-10-13T07:57:27.228Z,70.55
2022-10-13T08:01:25.518Z,71.36
2022-10-13T08:05:24.271Z,71.89
2022-10-13T08:13:37.772Z,69.93
2022-10-13T08:17:58.732Z,70.00
2022-10-13T08:22:12.298Z,70.28
2022-10-13T08:26:27.490Z,70.53
2022-10-13T08:30:26.710Z,70.42
2022-10-13T08:34:38.923Z,70.94
2022-10-13T08:38:37.391Z,70.65
2022-10-13T08:42:36.171Z,70.73
2022-10-13T08:47:00.275Z,70.22
2022-10-13T08:51:03.569Z,70.05
2022-10-13T08:55:01.966Z,69.07
2022-10-13T08:59:04.584Z,68.75
2022-10-13T09:03:20.320Z,68.56
2022-10-13T09:07:28.821Z,68.32
2022-10-13T09:11:36.649Z,68.48
2022-10-13T09:15:10.255Z,67.83
2022-10-13T09:19:25.677Z,68.30
2022-10-13T09:23:41.023Z,68.21
2022-10-13T09:27:59.608Z,69.02
2022-10-13T09:32:26.280Z,68.38
2022-10-13T09:36:25.029Z,68.71
2022-10-13T09:40:24.004Z,68.29
2022-10-13T09:44:36.206Z,67.86
2022-10-13T09:48:37.604Z,67.27
2022-10-13T09:52:36.498Z,67.40
2022-10-13T09:56:54.256Z,68.13
2022-10-13T10:00:54.831Z,68.47
2022-10-13T10:04:54.510Z,68.21
2022-10-13T10:09:05.032Z,67.98
2022-10-13T10:13:04.709Z,67.79
2022-10-13T10:17:41.971Z,67.81
2022-10-13T10:22:06.504Z,68.10
2022-10-13T10:26:19.371Z,68.88
2022-10-13T10:30:21.921Z,68.99
2022-10-13T10:40:02.646Z,70.15
2022-10-13T10:44:03.435Z,69.25
2022-10-13T10:48:12.722Z,70.93
2022-10-13T10:52:21.366Z,70.42
2022-10-13T10:56:38.910Z,68.83
2022-10-13T11:00:46.899Z,68.86
2022-10-13T11:04:48.586Z,69.48
2022-10-13T11:08:49.449Z,68.60
2022-10-13T11:13:17.683Z,69.21
2022-10-13T11:17:39.866Z,69.57
2022-10-13T11:21:56.926Z,70.01
2022-10-13T11:26:34.090Z,69.73
2022-10-13T11:30:50.690Z,69.20
2022-10-13T11:35:00.180Z,69.07
2022-10-13T11:39:28.431Z,69.10
2022-10-13T11:43:56.515Z,70.21
2022-10-13T11:48:51.842Z,70.20
2022-10-13T11:53:20.815Z,68.32
2022-10-13T11:57:26.382Z,69.05
2022-10-13T12:01:25.076Z,69.78
2022-10-13T12:05:26.409Z,69.84
2022-10-13T12:09:25.118Z,69.64
2022-10-13T12:17:44.870Z,69.95
2022-10-13T12:22:01.129Z,70.20
2022-10-13T12:26:23.243Z,70.35
2022-10-13T12:30:31.309Z,69.99
2022-10-13T12:34:33.476Z,69.26
2022-10-13T12:38:32.409Z,69.75
2022-10-13T12:42:36.502Z,69.43
2022-10-13T12:46:46.795Z,68.97
2022-10-13T12:50:45.573Z,69.09
2022-10-13T12:54:59.655Z,69.57
2022-10-13T12:59:00.730Z,69.47
2022-10-13T13:02:36.124Z,69.78
2022-10-13T13:06:37.655Z,69.83
2022-10-13T13:10:36.349Z,69.75
2022-10-13T13:14:49.839Z,69.70
2022-10-13T13:18:50.166Z,69.83
2022-10-13T13:22:51.073Z,70.28
2022-10-13T13:26:49.739Z,70.16
2022-10-13T13:31:02.406Z,69.88
2022-10-13T13:35:01.111Z,69.89
2022-10-13T13:38:59.769Z,69.58
2022-10-13T13:42:58.318Z,69.18
2022-10-13T13:47:02.536Z,68.95
2022-10-13T13:51:16.286Z,68.86
2022-10-13T13:55:16.313Z,69.06
2022-10-13T13:59:16.771Z,69.35
2022-10-13T14:03:19.222Z,69.81
2022-10-13T14:07:18.648Z,70.22
2022-10-13T14:11:17.746Z,69.91
2022-10-13T14:15:23.397Z,69.65
2022-10-13T14:19:24.990Z,69.94
2022-10-13T14:23:23.595Z,70.13
2022-10-13T14:27:23.022Z,70.34
2022-10-13T14:31:21.486Z,70.83
2022-10-13T14:35:20.879Z,70.82
2022-10-13T14:39:20.670Z,71.08
2022-10-13T14:43:33.137Z,71.38
2022-10-13T14:47:31.440Z,71.85
2022-10-13T14:51:30.235Z,72.03
2022-10-13T14:55:28.543Z,72.14
2022-10-13T14:59:27.166Z,72.42
2022-10-13T15:03:27.932Z,72.55
2022-10-13T15:07:26.661Z,72.58
2022-10-13T15:11:26.623Z,72.74
2022-10-13T15:15:24.842Z,73.06
2022-10-13T15:19:37.875Z,73.43
2022-10-13T15:23:37.912Z,73.75
2022-10-13T15:27:43.024Z,73.96
2022-10-13T15:32:09.177Z,74.60
2022-10-13T15:36:08.291Z,74.70
2022-10-13T15:40:11.820Z,74.33
2022-10-13T15:44:09.861Z,74.07
2022-10-13T15:48:23.057Z,74.00
2022-10-13T15:52:40.523Z,74.05
2022-10-13T15:56:39.679Z,74.14
2022-10-13T16:00:40.013Z,74.09
2022-10-13T16:04:52.261Z,74.14
2022-10-13T16:09:04.339Z,73.97
2022-10-13T16:13:03.519Z,73.58
2022-10-13T16:17:01.833Z,73.51
2022-10-13T16:21:00.170Z,73.52
2022-10-13T16:25:20.183Z,73.43
2022-10-13T16:29:20.614Z,73.47
2022-10-13T16:33:19.019Z,73.38
2022-10-13T16:37:18.160Z,73.24
2022-10-13T16:41:18.692Z,73.24
2022-10-13T16:45:17.194Z,73.42
2022-10-13T16:49:16.606Z,73.42
2022-10-13T16:53:14.640Z,73.22
2022-10-13T16:57:12.907Z,73.40
2022-10-13T17:01:12.536Z,73.26
2022-10-13T17:05:11.210Z,73.36
2022-10-13T17:09:10.781Z,73.48
2022-10-13T17:13:25.562Z,73.68
2022-10-13T17:17:24.980Z,73.61
2022-10-13T17:21:22.919Z,73.80
2022-10-13T17:25:21.719Z,74.11
2022-10-13T17:29:20.271Z,74.33
2022-10-13T17:33:35.439Z,74.40
2022-10-13T17:37:33.720Z,74.55
2022-10-13T17:41:45.910Z,74.68
2022-10-13T17:45:45.169Z,74.75
2022-10-13T17:49:43.824Z,74.80
2022-10-13T17:53:45.907Z,74.89
2022-10-13T17:57:44.499Z,75.06
2022-10-13T18:01:44.595Z,75.08
2022-10-13T18:05:44.174Z,75.31
2022-10-13T18:09:42.726Z,75.38
2022-10-13T18:13:42.213Z,75.31
2022-10-13T18:17:54.330Z,74.73
2022-10-13T18:21:53.382Z,74.36
2022-10-13T18:25:52.289Z,74.31
2022-10-13T18:29:52.344Z,74.34
2022-10-13T18:33:56.377Z,74.26
2022-10-13T18:37:54.710Z,74.25
2022-10-13T18:42:08.511Z,74.25
2022-10-13T18:46:06.997Z,74.15
2022-10-13T18:50:06.325Z,74.06
2022-10-13T18:54:07.670Z,73.86
2022-10-13T18:58:06.059Z,73.84
2022-10-13T19:02:04.252Z,73.79
2022-10-13T19:06:05.107Z,73.93
2022-10-13T19:10:04.710Z,74.26
2022-10-13T19:14:06.006Z,74.23
2022-10-13T19:18:06.386Z,74.46
2022-10-13T19:22:18.018Z,74.60
2022-10-13T19:26:19.743Z,74.59
2022-10-13T19:30:20.214Z,74.74
2022-10-13T19:34:34.936Z,74.86
2022-10-13T19:38:33.568Z,74.98
2022-10-13T19:42:32.766Z,75.19
2022-10-13T19:50:47.275Z,75.82
2022-10-13T19:54:46.694Z,75.60
2022-10-13T19:58:45.482Z,75.43
2022-10-13T20:02:43.571Z,74.78
2022-10-13T20:06:42.073Z,74.50
2022-10-13T20:10:54.258Z,74.20
2022-10-13T20:15:06.643Z,74.11
2022-10-13T20:19:06.815Z,74.31
2022-10-13T20:23:18.802Z,74.34
2022-10-13T20:27:17.079Z,74.18
2022-10-13T20:31:29.698Z,74.22
2022-10-13T20:35:27.914Z,74.26
2022-10-13T20:39:26.690Z,74.53
2022-10-13T20:43:25.977Z,74.51
2022-10-13T20:47:24.592Z,74.72
2022-10-13T20:51:24.544Z,74.67
2022-10-13T20:55:23.633Z,74.70
2022-10-13T20:59:22.398Z,74.73
2022-10-13T21:03:22.956Z,74.82
2022-10-13T21:07:21.459Z,74.93
2022-10-13T21:11:21.819Z,74.94
2022-10-13T21:15:20.760Z,75.10
2022-10-13T21:19:21.294Z,74.91
2022-10-13T21:23:20.032Z,75.15
2022-10-13T21:27:32.300Z,75.23
2022-10-13T21:31:30.945Z,75.31
2022-10-13T21:35:29.322Z,75.43
2022-10-13T21:39:41.076Z,75.42
2022-10-13T21:43:39.202Z,75.51
2022-10-13T21:47:38.150Z,75.78
2022-10-13T21:51:50.470Z,76.17
2022-10-13T21:55:49.315Z,76.36
2022-10-13T21:59:48.158Z,76.36
2022-10-13T22:03:47.467Z,76.66
2022-10-13T22:07:48.870Z,76.65
2022-10-13T22:11:47.569Z,76.90
2022-10-13T22:16:12.738Z,77.32
2022-10-13T22:20:16.396Z,77.66
2022-10-13T22:24:18.259Z,77.80
2022-10-13T22:28:36.090Z,77.81
2022-10-13T22:32:35.348Z,77.61
2022-10-13T22:36:33.760Z,77.55
2022-10-13T22:40:48.270Z,77.30
2022-10-13T22:44:24.030Z,77.16
2022-10-13T22:48:40.587Z,77.25
2022-10-13T22:52:40.951Z,77.31
2022-10-13T22:56:53.179Z,77.53
2022-10-13T23:00:51.101Z,77.58
2022-10-13T23:09:29.430Z,76.60
2022-10-13T23:13:41.717Z,76.39
2022-10-13T23:17:53.965Z,76.34
2022-10-13T23:21:52.298Z,76.24
2022-10-13T23:25:50.705Z,76.11
2022-10-13T23:29:49.301Z,75.94
2022-10-13T23:33:48.016Z,75.63
2022-10-13T23:37:46.478Z,75.32
2022-10-13T23:41:44.801Z,75.29
2022-10-13T23:45:45.431Z,75.42
2022-10-13T23:49:45.126Z,76.18
2022-10-13T23:53:43.693Z,76.54
2022-10-13T23:57:42.664Z,75.89
